createdAt,value
2022-08-24T00:01:18.757Z,11.97
2022-08-24T00:03:48.421Z,12.33
2022-08-24T00:06:24.934Z,11.67
2022-08-24T00:08:54.867Z,13.87
2022-08-24T00:11:23.606Z,13.53
2022-08-24T00:13:53.133Z,13.07
2022-08-24T00:16:25.606Z,11.70
2022-08-24T00:18:54.951Z,13.00
2022-08-24T00:21:24.060Z,12.53
2022-08-24T00:23:52.589Z,12.30
2022-08-24T00:26:28.716Z,12.43
2022-08-24T00:28:58.248Z,11.93
2022-08-24T00:31:28.379Z,12.80
2022-08-24T00:33:57.104Z,12.30
2022-08-24T00:36:25.945Z,11.03
2022-08-24T00:38:55.172Z,12.20
2022-08-24T00:41:24.364Z,13.13
2022-08-24T00:43:55.512Z,13.67
2022-08-24T00:46:28.951Z,14.27
2022-08-24T00:49:04.007Z,14.80
2022-08-24T00:51:37.678Z,13.90
2022-08-24T00:54:10.480Z,13.60
2022-08-24T00:56:43.851Z,14.80
2022-08-24T00:59:16.060Z,15.87
2022-08-24T01:01:47.546Z,12.77
2022-08-24T01:04:22.668Z,17.03
2022-08-24T01:06:51.333Z,17.00
2022-08-24T01:09:19.928Z,16.50
2022-08-24T01:11:49.842Z,13.87
2022-08-24T01:14:19.787Z,14.37
2022-08-24T01:17:07.021Z,16.50
2022-08-24T01:19:39.481Z,14.70
2022-08-24T01:22:22.447Z,13.93
2022-08-24T01:24:52.628Z,17.67
2022-08-24T01:27:24.863Z,16.37
2022-08-24T01:29:59.535Z,15.80
2022-08-24T01:32:29.566Z,16.57
2022-08-24T01:34:58.609Z,15.93
2022-08-24T01:37:27.298Z,15.27
2022-08-24T01:39:59.222Z,14.73
2022-08-24T01:42:29.917Z,15.73
2022-08-24T01:44:58.589Z,16.13
2022-08-24T01:47:27.407Z,15.37
2022-08-24T01:49:55.970Z,17.90
2022-08-24T01:52:29.707Z,18.00
2022-08-24T01:55:07.999Z,17.00
2022-08-24T01:57:36.569Z,17.27
2022-08-24T02:00:09.499Z,15.70
2022-08-24T02:02:38.539Z,18.60
2022-08-24T02:05:07.676Z,17.20
2022-08-24T02:07:36.232Z,16.20
2022-08-24T02:10:07.357Z,16.43
2022-08-24T02:12:36.147Z,16.07
2022-08-24T02:15:06.301Z,16.40
2022-08-24T02:17:34.955Z,17.27
2022-08-24T02:20:04.767Z,16.90
2022-08-24T02:22:33.336Z,16.70
2022-08-24T02:25:01.900Z,17.67
2022-08-24T02:27:32.552Z,18.73
2022-08-24T02:30:01.057Z,16.20
2022-08-24T02:32:29.668Z,18.50
2022-08-24T02:34:58.210Z,18.93
2022-08-24T02:37:26.793Z,17.03
2022-08-24T02:39:55.386Z,20.97
2022-08-24T02:42:24.005Z,19.37
2022-08-24T02:44:55.217Z,19.90
2022-08-24T02:47:23.728Z,20.20
2022-08-24T02:50:08.902Z,19.50
2022-08-24T02:52:39.426Z,18.37
2022-08-24T02:55:10.157Z,19.20
2022-08-24T02:57:38.905Z,21.77
2022-08-24T03:00:13.007Z,20.43
2022-08-24T03:02:42.391Z,18.43
2022-08-24T03:05:11.359Z,19.20
2022-08-24T03:07:39.902Z,19.50
2022-08-24T03:10:10.870Z,19.50
2022-08-24T03:12:40.755Z,19.17
2022-08-24T03:15:14.984Z,20.63
2022-08-24T03:17:45.414Z,21.93
2022-08-24T03:20:22.145Z,23.30
2022-08-24T03:22:51.017Z,20.73
2022-08-24T03:25:25.184Z,18.93
2022-08-24T03:27:54.814Z,18.90
2022-08-24T03:30:27.425Z,18.67
2022-08-24T03:32:56.915Z,20.00
2022-08-24T03:35:25.715Z,18.90
2022-08-24T03:37:54.789Z,18.50
2022-08-24T03:40:26.864Z,18.30
2022-08-24T03:42:55.786Z,18.63
2022-08-24T03:45:26.142Z,19.90
2022-08-24T03:47:55.800Z,15.93
2022-08-24T03:50:25.403Z,18.13
2022-08-24T03:52:54.068Z,20.23
2022-08-24T03:55:23.155Z,18.90
2022-08-24T03:57:53.588Z,17.63
2022-08-24T04:00:22.840Z,18.03
2022-08-24T04:02:53.947Z,18.53
2022-08-24T04:05:23.100Z,16.93
2022-08-24T04:07:52.672Z,17.10
2022-08-24T04:10:21.374Z,16.70
2022-08-24T04:12:50.033Z,18.47
2022-08-24T04:15:25.132Z,17.77
2022-08-24T04:17:55.794Z,17.30
2022-08-24T04:20:26.930Z,19.17
2022-08-24T04:22:57.968Z,18.03
2022-08-24T04:25:26.767Z,17.83
2022-08-24T04:27:56.126Z,18.43
2022-08-24T04:30:26.123Z,19.83
2022-08-24T04:32:56.092Z,19.60
2022-08-24T04:35:25.165Z,19.60
2022-08-24T04:37:53.694Z,19.00
2022-08-24T04:40:22.668Z,19.17
2022-08-24T04:42:51.777Z,20.33
2022-08-24T04:45:20.501Z,20.10
2022-08-24T04:47:49.377Z,19.03
2022-08-24T04:50:19.760Z,19.70
2022-08-24T04:52:48.403Z,19.97
2022-08-24T04:55:17.791Z,19.17
2022-08-24T04:57:46.371Z,18.60
2022-08-24T05:00:15.813Z,19.20
2022-08-24T05:02:45.162Z,18.93
2022-08-24T05:05:14.431Z,18.27
2022-08-24T05:07:45.048Z,20.30
2022-08-24T05:10:15.212Z,17.50
2022-08-24T05:12:48.417Z,17.23
2022-08-24T05:15:17.758Z,18.23
2022-08-24T05:17:50.983Z,15.80
2022-08-24T05:20:21.232Z,16.20
2022-08-24T05:22:55.926Z,14.20
2022-08-24T05:25:26.201Z,14.80
2022-08-24T05:27:55.534Z,14.10
2022-08-24T05:33:25.105Z,13.23
2022-08-24T05:35:58.086Z,13.00
2022-08-24T05:38:28.115Z,13.27
2022-08-24T05:43:41.221Z,12.07
2022-08-24T05:46:16.462Z,13.37
2022-08-24T05:49:10.010Z,12.70
2022-08-24T05:51:45.743Z,12.40
2022-08-24T05:54:35.889Z,12.67
2022-08-24T05:57:12.107Z,12.53
2022-08-24T06:00:11.563Z,11.10
2022-08-24T06:02:53.176Z,12.37
2022-08-24T06:05:23.458Z,12.27
2022-08-24T06:08:01.175Z,12.40
2022-08-24T06:10:36.674Z,11.97
2022-08-24T06:13:13.170Z,10.93
2022-08-24T06:16:21.508Z,12.33
2022-08-24T06:19:20.535Z,11.53
2022-08-24T06:22:00.376Z,12.30
2022-08-24T06:24:58.884Z,11.93
2022-08-24T06:27:49.214Z,12.63
2022-08-24T06:30:54.038Z,10.63
2022-08-24T06:33:53.646Z,12.20
2022-08-24T06:36:23.480Z,11.70
2022-08-24T06:39:22.997Z,11.97
2022-08-24T06:42:16.548Z,11.70
2022-08-24T06:44:56.006Z,11.70
2022-08-24T06:47:42.891Z,13.10
2022-08-24T06:50:24.394Z,12.30
2022-08-24T06:53:01.890Z,13.90
2022-08-24T06:55:48.477Z,13.60
2022-08-24T06:58:25.517Z,13.50
2022-08-24T07:01:00.637Z,14.43
2022-08-24T07:03:37.517Z,12.90
2022-08-24T07:06:26.405Z,13.00
2022-08-24T07:09:22.544Z,13.17
2022-08-24T07:12:10.316Z,14.07
2022-08-24T07:14:53.691Z,12.27
2022-08-24T07:17:34.799Z,13.77
2022-08-24T07:20:11.595Z,13.90
2022-08-24T07:22:43.595Z,13.83
2022-08-24T07:25:30.193Z,14.13
2022-08-24T07:28:00.862Z,12.37
2022-08-24T07:30:31.269Z,14.40
2022-08-24T07:33:00.348Z,14.10
2022-08-24T07:35:33.286Z,14.50
2022-08-24T07:38:03.879Z,15.40
2022-08-24T07:40:48.760Z,14.73
2022-08-24T07:43:25.260Z,12.60
2022-08-24T07:45:54.369Z,12.17
2022-08-24T07:48:24.618Z,12.53
2022-08-24T07:50:54.798Z,12.50
2022-08-24T07:53:27.828Z,11.23
2022-08-24T07:56:01.104Z,12.77
2022-08-24T07:58:31.324Z,10.73
2022-08-24T08:01:00.820Z,9.57
2022-08-24T08:03:32.136Z,10.53
2022-08-24T08:06:04.824Z,10.20
2022-08-24T08:08:35.938Z,8.50
2022-08-24T08:11:04.972Z,8.07
2022-08-24T08:13:36.085Z,9.97
2022-08-24T08:16:08.557Z,8.63
2022-08-24T08:18:37.791Z,8.50
2022-08-24T08:21:27.083Z,10.60
2022-08-24T08:24:13.958Z,8.00
2022-08-24T08:26:44.400Z,6.73
2022-08-24T08:29:15.522Z,6.73
2022-08-24T08:31:45.561Z,7.30
2022-08-24T08:34:15.336Z,6.30
2022-08-24T08:36:45.724Z,6.23
2022-08-24T08:39:16.256Z,6.03
2022-08-24T08:42:12.783Z,5.10
2022-08-24T08:45:00.585Z,7.10
2022-08-24T08:50:41.281Z,7.70
2022-08-24T08:53:51.613Z,8.40
2022-08-24T08:56:30.958Z,7.70
2022-08-24T08:59:07.599Z,7.27
2022-08-24T09:01:49.241Z,7.97
2022-08-24T09:04:52.217Z,8.60
2022-08-24T09:07:43.635Z,8.77
2022-08-24T09:10:37.135Z,8.43
2022-08-24T09:13:24.667Z,10.17
2022-08-24T09:16:18.402Z,8.60
2022-08-24T09:19:00.237Z,9.40
2022-08-24T09:22:03.388Z,7.20
2022-08-24T09:25:18.090Z,6.80
2022-08-24T09:28:06.556Z,4.97
2022-08-24T09:31:04.810Z,6.57
2022-08-24T09:33:48.931Z,5.70
2022-08-24T09:36:37.195Z,7.70
2022-08-24T09:39:28.164Z,7.00
2022-08-24T09:42:42.507Z,7.90
2022-08-24T09:45:47.656Z,6.53
2022-08-24T09:49:05.129Z,6.60
2022-08-24T09:52:08.588Z,6.63
2022-08-24T09:55:28.116Z,5.80
2022-08-24T09:58:24.733Z,6.40
2022-08-24T10:01:08.668Z,6.93
2022-08-24T10:04:00.944Z,7.53
2022-08-24T10:06:40.150Z,6.63
2022-08-24T10:09:49.856Z,7.33
2022-08-24T10:12:38.328Z,9.47
2022-08-24T10:15:14.338Z,7.03
2022-08-24T10:18:10.260Z,5.67
2022-08-24T10:21:11.235Z,6.73
2022-08-24T10:24:00.725Z,5.30
2022-08-24T10:26:45.913Z,7.00
2022-08-24T10:29:41.810Z,5.27
2022-08-24T10:32:24.787Z,6.20
2022-08-24T10:35:10.472Z,7.27
2022-08-24T10:38:29.248Z,5.73
2022-08-24T10:41:39.320Z,5.03
2022-08-24T10:44:53.093Z,5.37
2022-08-24T10:47:31.727Z,5.93
2022-08-24T10:50:20.663Z,6.20
2022-08-24T10:53:07.919Z,5.87
2022-08-24T10:55:37.866Z,5.00
2022-08-24T10:58:29.621Z,6.30
2022-08-24T11:01:15.794Z,4.80
2022-08-24T11:03:52.596Z,4.90
2022-08-24T11:06:24.472Z,5.80
2022-08-24T11:08:56.955Z,4.70
2022-08-24T11:11:28.470Z,4.90
2022-08-24T11:14:00.328Z,6.23
2022-08-24T11:16:36.027Z,5.60
2022-08-24T11:19:09.667Z,6.03
2022-08-24T11:21:46.035Z,5.33
2022-08-24T11:24:27.773Z,5.73
2022-08-24T11:26:59.536Z,5.67
2022-08-24T11:29:31.542Z,5.80
2022-08-24T11:32:02.217Z,6.20
2022-08-24T11:34:38.741Z,6.53
2022-08-24T11:37:16.033Z,6.63
2022-08-24T11:39:45.051Z,6.33
2022-08-24T11:42:27.427Z,6.00
2022-08-24T11:45:09.091Z,5.90
2022-08-24T11:48:05.697Z,6.30
2022-08-24T11:50:57.928Z,6.80
2022-08-24T11:54:02.925Z,6.10
2022-08-24T11:57:02.503Z,6.60
2022-08-24T11:59:50.346Z,5.90
2022-08-24T12:02:28.615Z,5.83
2022-08-24T12:05:10.357Z,6.30
2022-08-24T12:07:56.446Z,6.70
2022-08-24T12:10:38.935Z,5.90
2022-08-24T12:16:36.761Z,6.40
2022-08-24T12:19:27.400Z,6.60
2022-08-24T12:25:25.432Z,6.80
2022-08-24T12:28:05.697Z,6.30
2022-08-24T12:30:50.564Z,7.17
2022-08-24T12:33:40.678Z,5.77
2022-08-24T12:36:21.744Z,6.23
2022-08-24T12:39:07.689Z,6.97
2022-08-24T12:41:43.176Z,7.53
2022-08-24T12:44:35.853Z,7.27
2022-08-24T12:47:16.682Z,7.13
2022-08-24T12:50:00.272Z,6.77
2022-08-24T12:53:09.024Z,7.40
2022-08-24T12:56:07.252Z,5.40
2022-08-24T12:58:58.751Z,6.33
2022-08-24T13:01:33.824Z,6.87
2022-08-24T13:04:17.163Z,6.07
2022-08-24T13:06:54.239Z,6.20
2022-08-24T13:09:33.054Z,5.47
2022-08-24T13:12:50.778Z,5.93
2022-08-24T13:15:29.691Z,7.20
2022-08-24T13:18:03.136Z,6.40
2022-08-24T13:20:56.841Z,5.93
2022-08-24T13:23:27.440Z,7.40
2022-08-24T13:25:59.485Z,6.10
2022-08-24T13:28:46.844Z,6.17
2022-08-24T13:31:28.753Z,7.03
2022-08-24T13:34:01.294Z,6.30
2022-08-24T13:37:11.249Z,6.50
2022-08-24T13:40:01.542Z,6.77
2022-08-24T13:43:04.346Z,6.60
2022-08-24T13:45:37.914Z,7.37
2022-08-24T13:48:28.332Z,6.30
2022-08-24T13:51:21.794Z,6.73
2022-08-24T13:54:03.827Z,6.73
2022-08-24T13:56:45.687Z,7.03
2022-08-24T13:59:22.515Z,6.47
2022-08-24T14:02:04.225Z,7.10
2022-08-24T14:04:44.628Z,7.20
2022-08-24T14:07:21.001Z,8.57
2022-08-24T14:10:02.768Z,6.50
2022-08-24T14:12:51.213Z,7.17
2022-08-24T14:15:27.269Z,8.17
2022-08-24T14:18:09.437Z,8.00
2022-08-24T14:20:58.895Z,8.80
2022-08-24T14:23:36.592Z,8.80
2022-08-24T14:26:40.212Z,8.50
2022-08-24T14:29:32.333Z,7.30
2022-08-24T14:32:49.097Z,8.23
2022-08-24T14:35:37.364Z,8.27
2022-08-24T14:38:31.082Z,9.40
2022-08-24T14:41:17.201Z,9.13
2022-08-24T14:44:29.016Z,8.30
2022-08-24T14:47:06.904Z,9.77
2022-08-24T14:49:49.149Z,7.70
2022-08-24T14:52:40.653Z,8.43
2022-08-24T14:55:17.390Z,9.00
2022-08-24T14:58:06.294Z,8.00
2022-08-24T15:01:07.910Z,8.53
2022-08-24T15:03:59.663Z,7.77
2022-08-24T15:06:37.495Z,8.37
2022-08-24T15:09:21.188Z,8.40
2022-08-24T15:11:51.371Z,9.13
2022-08-24T15:14:33.783Z,8.73
2022-08-24T15:17:10.536Z,9.03
2022-08-24T15:19:51.380Z,10.83
2022-08-24T15:22:30.321Z,9.57
2022-08-24T15:25:11.347Z,11.90
2022-08-24T15:27:46.749Z,10.87
2022-08-24T15:30:27.194Z,10.80
2022-08-24T15:33:05.341Z,11.20
2022-08-24T15:35:48.730Z,11.80
2022-08-24T15:38:25.159Z,11.00
2022-08-24T15:41:06.976Z,12.93
2022-08-24T15:43:37.924Z,12.03
2022-08-24T15:46:07.391Z,10.53
2022-08-24T15:48:37.228Z,11.10
2022-08-24T15:51:06.540Z,11.10
2022-08-24T15:53:37.989Z,13.30
2022-08-24T15:56:35.463Z,11.13
2022-08-24T15:59:13.907Z,10.53
2022-08-24T16:01:59.761Z,10.70
2022-08-24T16:04:47.654Z,11.50
2022-08-24T16:07:23.570Z,10.80
2022-08-24T16:10:04.800Z,10.90
2022-08-24T16:12:34.835Z,11.67
2022-08-24T16:15:20.684Z,10.90
2022-08-24T16:17:51.736Z,12.20
2022-08-24T16:20:33.456Z,10.77
2022-08-24T16:23:04.727Z,11.57
2022-08-24T16:25:38.702Z,11.87
2022-08-24T16:28:13.961Z,12.50
2022-08-24T16:30:50.007Z,11.80
2022-08-24T16:33:43.516Z,12.27
2022-08-24T16:36:15.593Z,11.33
2022-08-24T16:38:49.081Z,12.87
2022-08-24T16:41:19.640Z,12.30
2022-08-24T16:43:50.415Z,12.80
2022-08-24T16:46:22.322Z,12.37
2022-08-24T16:48:51.601Z,10.53
2022-08-24T16:51:20.381Z,11.93
2022-08-24T16:53:49.602Z,12.23
2022-08-24T16:56:19.455Z,10.53
2022-08-24T16:58:52.814Z,11.30
2022-08-24T17:01:21.791Z,12.50
2022-08-24T17:03:59.319Z,12.73
2022-08-24T17:06:28.849Z,12.40
2022-08-24T17:08:57.755Z,12.90
2022-08-24T17:11:27.066Z,13.57
2022-08-24T17:13:57.059Z,14.83
2022-08-24T17:16:26.104Z,13.90
2022-08-24T17:18:55.847Z,13.57
2022-08-24T17:21:24.878Z,13.17
2022-08-24T17:23:53.833Z,13.97
2022-08-24T17:26:22.449Z,13.00
2022-08-24T17:28:54.451Z,13.60
2022-08-24T17:31:25.728Z,13.10
2022-08-24T17:33:54.616Z,14.77
2022-08-24T17:36:25.916Z,12.50
2022-08-24T17:39:01.674Z,14.20
2022-08-24T17:41:30.351Z,14.87
2022-08-24T17:43:59.032Z,13.93
2022-08-24T17:46:30.315Z,16.43
2022-08-24T17:49:03.211Z,15.43
2022-08-24T17:51:31.911Z,16.03
2022-08-24T17:54:00.418Z,15.73
2022-08-24T17:56:31.473Z,15.30
2022-08-24T17:59:18.588Z,16.97
2022-08-24T18:01:52.931Z,16.33
2022-08-24T18:04:26.204Z,17.07
2022-08-24T18:06:56.943Z,16.03
2022-08-24T18:09:30.552Z,18.20
2022-08-24T18:12:05.338Z,16.03
2022-08-24T18:14:34.599Z,17.67
2022-08-24T18:17:07.774Z,14.50
2022-08-24T18:19:37.981Z,16.80
2022-08-24T18:22:06.602Z,15.80
2022-08-24T18:24:35.398Z,16.53
2022-08-24T18:27:10.053Z,16.97
2022-08-24T18:29:40.985Z,16.50
2022-08-24T18:32:13.693Z,15.67
2022-08-24T18:34:43.623Z,16.37
2022-08-24T18:37:13.282Z,16.27
2022-08-24T18:39:44.357Z,17.43
2022-08-24T18:42:14.064Z,18.33
2022-08-24T18:44:43.852Z,19.97
2022-08-24T18:47:14.187Z,17.70
2022-08-24T18:49:43.071Z,18.03
2022-08-24T18:52:14.423Z,16.47
2022-08-24T18:54:46.742Z,19.40
2022-08-24T18:57:15.736Z,17.90
2022-08-24T18:59:49.374Z,19.50
2022-08-24T19:02:31.533Z,16.80
2022-08-24T19:05:02.511Z,18.13
2022-08-24T19:07:33.131Z,19.93
2022-08-24T19:10:02.648Z,18.77
2022-08-24T19:12:33.635Z,19.57
2022-08-24T19:15:03.714Z,19.70
2022-08-24T19:17:33.770Z,18.83
2022-08-24T19:20:02.809Z,18.40
2022-08-24T19:22:46.723Z,20.17
2022-08-24T19:25:31.795Z,19.03
2022-08-24T19:28:13.211Z,20.13
2022-08-24T19:30:44.736Z,18.90
2022-08-24T19:33:25.448Z,20.70
2022-08-24T19:36:08.153Z,20.57
2022-08-24T19:39:11.534Z,20.97
2022-08-24T19:41:53.381Z,17.10
2022-08-24T19:44:40.142Z,20.00
2022-08-24T19:47:17.090Z,19.50
2022-08-24T19:49:51.308Z,18.03
2022-08-24T19:52:20.749Z,17.60
2022-08-24T19:54:50.352Z,19.30
2022-08-24T19:57:38.719Z,19.47
2022-08-24T20:00:24.867Z,19.80
2022-08-24T20:02:55.963Z,20.47
2022-08-24T20:05:29.818Z,23.13
2022-08-24T20:08:00.056Z,19.80
2022-08-24T20:10:31.272Z,20.30
2022-08-24T20:13:00.332Z,21.20
2022-08-24T20:15:29.749Z,20.40
2022-08-24T20:17:59.695Z,21.70
2022-08-24T20:20:35.285Z,21.77
2022-08-24T20:23:06.637Z,20.90
2022-08-24T20:25:36.932Z,20.73
2022-08-24T20:30:57.760Z,20.10
2022-08-24T20:33:28.082Z,22.90
2022-08-24T20:35:59.887Z,22.60
2022-08-24T20:38:32.040Z,22.20
2022-08-24T20:41:01.755Z,22.30
2022-08-24T20:43:32.024Z,24.67
2022-08-24T20:46:02.985Z,25.07
2022-08-24T20:49:30.191Z,24.20
2022-08-24T20:52:01.366Z,27.00
2022-08-24T20:54:50.866Z,21.90
2022-08-24T20:57:31.786Z,26.13
2022-08-24T21:00:15.900Z,22.90
2022-08-24T21:03:05.974Z,23.33
2022-08-24T21:05:48.515Z,24.63
2022-08-24T21:08:48.505Z,24.07
2022-08-24T21:11:25.438Z,21.50
2022-08-24T21:14:05.421Z,22.77
2022-08-24T21:16:37.936Z,22.30
2022-08-24T21:19:19.314Z,22.70
2022-08-24T21:21:56.080Z,21.97
2022-08-24T21:24:47.652Z,22.20
2022-08-24T21:27:31.161Z,21.67
2022-08-24T21:30:17.904Z,22.53
2022-08-24T21:33:10.516Z,22.53
2022-08-24T21:36:02.521Z,21.00
2022-08-24T21:38:57.123Z,22.77
2022-08-24T21:45:00.503Z,21.50
2022-08-24T21:47:38.309Z,22.40
2022-08-24T21:50:21.325Z,21.90
2022-08-24T21:52:58.575Z,21.97
2022-08-24T21:55:53.784Z,21.73
2022-08-24T21:58:33.146Z,23.57
2022-08-24T22:01:38.285Z,22.30
2022-08-24T22:04:29.870Z,22.43
2022-08-24T22:07:33.086Z,23.70
2022-08-24T22:10:13.297Z,22.93
2022-08-24T22:13:05.027Z,24.30
2022-08-24T22:15:58.489Z,22.20
2022-08-24T22:18:40.887Z,23.00
2022-08-24T22:21:24.532Z,23.83
2022-08-24T22:24:02.540Z,21.87
2022-08-24T22:26:46.334Z,23.00
2022-08-24T22:29:21.039Z,23.20
2022-08-24T22:31:51.538Z,23.47
2022-08-24T22:34:25.403Z,23.47
2022-08-24T22:37:09.018Z,22.90
2022-08-24T22:39:49.783Z,22.97
2022-08-24T22:42:19.130Z,24.03
2022-08-24T22:44:57.245Z,23.73
2022-08-24T22:47:38.080Z,23.30
2022-08-24T22:50:20.427Z,22.70
2022-08-24T22:53:06.938Z,23.40
2022-08-24T22:55:41.058Z,25.27
2022-08-24T22:58:26.237Z,24.37
2022-08-24T23:01:05.454Z,23.70
2022-08-24T23:03:58.538Z,23.63
2022-08-24T23:06:43.352Z,23.10
2022-08-24T23:09:36.655Z,24.70
2022-08-24T23:12:33.326Z,25.40
2022-08-24T23:15:36.513Z,23.00
2022-08-24T23:18:31.272Z,25.30
2022-08-24T23:21:17.561Z,24.63
2022-08-24T23:23:52.548Z,24.80
2022-08-24T23:26:33.531Z,23.23
2022-08-24T23:29:07.906Z,22.73
2022-08-24T23:31:39.257Z,24.20
2022-08-24T23:34:08.375Z,23.03
2022-08-24T23:36:40.816Z,24.63
2022-08-24T23:39:11.161Z,25.90
2022-08-24T23:41:46.130Z,25.77
2022-08-24T23:44:18.479Z,24.60
2022-08-24T23:46:48.241Z,23.10
2022-08-24T23:49:20.129Z,25.30
2022-08-24T23:51:52.659Z,24.97
2022-08-24T23:54:22.209Z,26.57
2022-08-24T23:56:54.942Z,24.70
2022-08-24T23:59:27.040Z,25.90
